Eleme Airstrip


Codes: AYEM/
Name: Eleme Airstrip
City: Eleme
Country: Papua New Guinea
Elevation: 233 ft.

Photos at Eleme Airstrip


   Photos courtesy of SpottingLog. You can add your own sightings and photos by signing up for a free trial today.



No photos found.

Weather at Eleme Airstrip


Time (UTC)DescriptionTempratureWindCloud coverageVisibilityPressureHumidity
25-Jun-2024 21:00Overcast Clouds22°C2 mph, S86%10000m1011hPa94%
26-Jun-2024 00:00Broken Clouds25°C2 mph, NE84%10000m1011hPa83%
26-Jun-2024 03:00Scattered Clouds30°C4 mph, N40%10000m1009hPa65%
26-Jun-2024 06:00Light Rain33°C2 mph, NE31%10000m1006hPa55%
26-Jun-2024 09:00Light Rain26°C0 mph, E76%10000m1009hPa94%
26-Jun-2024 12:00Light Rain24°C2 mph, SW68%10000m1010hPa98%
26-Jun-2024 15:00Light Rain24°C4 mph, S89%10000m1009hPa98%
26-Jun-2024 18:00Light Rain23°C4 mph, S87%10000m1009hPa97%
26-Jun-2024 21:00Overcast Clouds23°C2 mph, S100%10000m1011hPa96%
27-Jun-2024 00:00Overcast Clouds30°C2 mph, N100%10000m1011hPa67%
27-Jun-2024 03:00Overcast Clouds32°C4 mph, N100%10000m1008hPa59%
27-Jun-2024 06:00Light Rain32°C2 mph, N98%10000m1006hPa60%
27-Jun-2024 09:00Light Rain26°C0 mph, W98%10000m1009hPa96%
27-Jun-2024 12:00Light Rain25°C2 mph, SW98%10000m1011hPa98%
27-Jun-2024 15:00Moderate Rain24°C2 mph, S100%10000m1010hPa98%
27-Jun-2024 18:00Light Rain23°C2 mph, S100%10000m1010hPa97%
27-Jun-2024 21:00Light Rain23°C2 mph, S99%10000m1011hPa97%
28-Jun-2024 00:00Light Rain29°C2 mph, N97%10000m1011hPa75%
28-Jun-2024 03:00Light Rain33°C4 mph, N68%10000m1008hPa57%
28-Jun-2024 06:00Light Rain27°C2 mph, E84%7699m1008hPa91%
28-Jun-2024 09:00Light Rain25°C2 mph, E100%10000m1009hPa94%
28-Jun-2024 12:00Light Rain24°C2 mph, E100%10000m1011hPa96%
28-Jun-2024 15:00Light Rain24°C2 mph, SE100%8559m1011hPa97%
28-Jun-2024 18:00Light Rain24°C2 mph, S98%10000m1010hPa96%
28-Jun-2024 21:00Overcast Clouds23°C2 mph, S100%10000m1011hPa96%
29-Jun-2024 00:00Overcast Clouds28°C2 mph, N100%10000m1011hPa76%
29-Jun-2024 03:00Overcast Clouds33°C4 mph, N100%10000m1008hPa57%
29-Jun-2024 06:00Light Rain32°C2 mph, N100%10000m1006hPa61%
29-Jun-2024 09:00Moderate Rain25°C0 mph, SE100%10000m1009hPa97%
29-Jun-2024 12:00Light Rain24°C2 mph, SW99%10000m1011hPa98%
29-Jun-2024 15:00Moderate Rain24°C2 mph, SW76%10000m1010hPa99%
29-Jun-2024 18:00Moderate Rain23°C2 mph, S53%10000m1009hPa98%
29-Jun-2024 21:00Light Rain23°C2 mph, S96%10000m1011hPa97%
30-Jun-2024 00:00Light Rain27°C2 mph, NE98%5849m1011hPa90%
30-Jun-2024 03:00Moderate Rain27°C2 mph, NE100%10000m1010hPa87%
30-Jun-2024 06:00Light Rain30°C2 mph, NE91%10000m1008hPa73%
30-Jun-2024 09:00Light Rain25°C2 mph, NE99%10000m1010hPa95%
30-Jun-2024 12:00Light Rain24°C2 mph, S100%10000m1011hPa96%
30-Jun-2024 15:00Light Rain23°C2 mph, S100%10000m1011hPa99%
30-Jun-2024 18:00Light Rain23°C2 mph, SW100%10000m1010hPa98%